Terminal Aerodrome Forecast
Issued by NWS

Home | Current Version | Previous Version | Text Only | Print | Product List | Glossary On
Versions: 1 2 3 4 5 6 7 8 9 10 11 12 13 14 15
000
FTAK31 PANC 251300 AAA
TAFAEN
TAF AMD
PAEN 251300Z 2513/2612 20010KT P6SM VCSH FEW006 BKN015 OVC020
      TEMPO 2513/2517 SCT015 BKN040
     FM251700 23010KT P6SM SCT025 BKN045=

USA.gov is the U.S. government's official web portal to all federal, state and local government web resources and services.